Terminal Aerodrome Forecast
Issued by NWS

Home | Current Version | Previous Version | Text Only | Print | Product List | Glossary On
Versions: 1 2 3 4 5 6 7 8 9 10 11 12 13 14 15 16 17 18 19 20
000
FTUS42 KFFC 290545
TAFRYY
TAF
KRYY 290545Z 2906/3006 24006KT P6SM FEW100 BKN250
     FM291400 26008KT P6SM SCT035 SCT150
     FM291800 26010KT P6SM BKN050 PROB30 2919/2923 4SM -TSRA BR
      BKN025CB
     FM300000 24006KT P6SM VCSH SCT060 BKN120=

USA.gov is the U.S. government's official web portal to all federal, state and local government web resources and services.